createdAt,value
2017-04-10T00:00:20.761Z,68.13
2017-04-10T00:01:01.323Z,68.07
2017-04-10T00:01:41.894Z,68.07
2017-04-10T00:02:22.429Z,67.84
2017-04-10T00:03:02.945Z,68.16
2017-04-10T00:03:43.409Z,68.35
2017-04-10T00:04:23.918Z,68.07
2017-04-10T00:05:04.415Z,67.75
2017-04-10T00:05:44.925Z,67.59
2017-04-10T00:06:25.408Z,67.3
2017-04-10T00:07:05.908Z,67.69
2017-04-10T00:07:46.408Z,67.46
2017-04-10T00:08:26.915Z,67.55
2017-04-10T00:09:07.446Z,67.46
2017-04-10T00:09:47.927Z,67.55
2017-04-10T00:10:28.434Z,67.65
2017-04-10T00:11:08.946Z,67.65
2017-04-10T00:11:49.452Z,67.65
2017-04-10T00:12:29.961Z,68.13
2017-04-10T00:13:10.453Z,67.75
2017-04-10T00:13:50.945Z,67.46
2017-04-10T00:14:31.472Z,67.84
2017-04-10T00:15:11.964Z,67.84
2017-04-10T00:15:52.484Z,67.46
2017-04-10T00:16:33.012Z,67.46
2017-04-10T00:17:13.484Z,67.46
2017-04-10T00:17:53.970Z,67.46
2017-04-10T00:18:34.482Z,67.65
2017-04-10T00:19:14.974Z,67.75
2017-04-10T00:19:55.497Z,67.94
2017-04-10T00:20:35.956Z,67.55
2017-04-10T00:21:16.448Z,67.55
2017-04-10T00:21:56.956Z,67.84
2017-04-10T00:22:37.432Z,67.94
2017-04-10T00:23:17.977Z,68.32
2017-04-10T00:23:58.431Z,68.23
2017-04-10T00:24:38.933Z,68.23
2017-04-10T00:25:19.437Z,67.65
2017-04-10T00:25:59.959Z,67.46
2017-04-10T00:26:40.420Z,67.84
2017-04-10T00:27:20.975Z,67.27
2017-04-10T00:28:01.442Z,67.27
2017-04-10T00:28:41.915Z,67.36
2017-04-10T00:29:22.437Z,67.27
2017-04-10T00:30:02.944Z,67.46
2017-04-10T00:30:43.416Z,67.84
2017-04-10T00:31:23.939Z,67.65
2017-04-10T00:32:04.413Z,67.75
2017-04-10T00:32:44.935Z,67.94
2017-04-10T00:33:25.457Z,67.65
2017-04-10T00:34:05.963Z,67.65
2017-04-10T00:34:46.445Z,67.84
2017-04-10T00:35:26.984Z,68.04
2017-04-10T00:36:07.496Z,67.94
2017-04-10T00:36:47.965Z,68.61
2017-04-10T00:37:28.444Z,68.41
2017-04-10T00:38:08.963Z,68.99
2017-04-10T00:38:49.494Z,69.09
2017-04-10T00:39:30.016Z,68.99
2017-04-10T00:40:10.521Z,68.99
2017-04-10T00:40:51.014Z,68.9
2017-04-10T00:41:31.506Z,68.99
2017-04-10T00:42:12.006Z,68.9
2017-04-10T00:42:52.507Z,68.99
2017-04-10T00:43:33.024Z,69.09
2017-04-10T00:44:13.543Z,69.34
2017-04-10T00:44:53.987Z,69.09
2017-04-10T00:45:34.493Z,69.09
2017-04-10T00:46:15.064Z,69.37
2017-04-10T00:46:55.502Z,69.24
2017-04-10T00:47:36.045Z,69.05
2017-04-10T00:48:16.488Z,69.09
2017-04-10T00:48:57.007Z,69.15
2017-04-10T00:49:37.514Z,69.05
2017-04-10T00:50:18.023Z,68.9
2017-04-10T00:50:58.555Z,68.86
2017-04-10T00:51:39.022Z,68.51
2017-04-10T00:52:19.533Z,68.67
2017-04-10T00:53:00.030Z,68.57
2017-04-10T00:53:40.527Z,68.38
2017-04-10T00:54:21.003Z,68.67
2017-04-10T00:55:01.499Z,68.67
2017-04-10T00:55:41.980Z,68.29
2017-04-10T00:56:22.470Z,68.19
2017-04-10T00:57:02.962Z,68.29
2017-04-10T00:57:43.494Z,68.19
2017-04-10T00:58:23.993Z,67.91
2017-04-10T00:59:04.533Z,67.46
2017-04-10T00:59:45.010Z,67.75
2017-04-10T01:00:25.503Z,67.91
2017-04-10T01:01:06.024Z,67.46
2017-04-10T01:01:46.492Z,67.33
2017-04-10T01:02:27.024Z,67.24
2017-04-10T01:03:07.489Z,67.27
2017-04-10T01:03:47.985Z,67.33
2017-04-10T01:04:28.474Z,67.24
2017-04-10T01:05:08.971Z,67.33
2017-04-10T01:05:49.466Z,67.14
2017-04-10T01:06:29.970Z,67.33
2017-04-10T01:07:10.472Z,67.33
2017-04-10T01:07:50.948Z,67.24
2017-04-10T01:08:31.451Z,67.05
2017-04-10T01:09:11.938Z,67.14
2017-04-10T01:09:52.417Z,67.33
2017-04-10T01:10:32.933Z,67.33
2017-04-10T01:11:13.406Z,67.14
2017-04-10T01:11:53.901Z,67.24
2017-04-10T01:12:34.420Z,66.38
2017-04-10T01:13:14.926Z,66.66
2017-04-10T01:13:55.395Z,66.28
2017-04-10T01:14:35.906Z,66.38
2017-04-10T01:15:16.413Z,66.56
2017-04-10T01:15:56.935Z,66.19
2017-04-10T01:16:37.395Z,65.8
2017-04-10T01:17:17.887Z,65.8
2017-04-10T01:17:58.385Z,66.19
2017-04-10T01:18:38.863Z,65.9
2017-04-10T01:19:19.385Z,66.19
2017-04-10T01:19:59.863Z,66.47
2017-04-10T01:20:40.393Z,66.28
2017-04-10T01:21:20.888Z,65.9
2017-04-10T01:22:01.380Z,66.28
2017-04-10T01:22:41.907Z,66.09
2017-04-10T01:23:22.378Z,66.28
2017-04-10T01:24:02.901Z,66.56
2017-04-10T01:24:43.366Z,66.85
2017-04-10T01:25:23.896Z,66.47
2017-04-10T01:26:04.401Z,67.05
2017-04-10T01:26:44.866Z,67.05
2017-04-10T01:27:25.372Z,67.14
2017-04-10T01:28:05.894Z,67.24
2017-04-10T01:28:46.394Z,67.33
2017-04-10T01:29:26.897Z,67.33
2017-04-10T01:30:07.402Z,67.14
2017-04-10T01:30:47.903Z,67.05
2017-04-10T01:31:28.427Z,66.95
2017-04-10T01:32:08.925Z,66.38
2017-04-10T01:32:49.424Z,66.95
2017-04-10T01:33:29.895Z,66.66
2017-04-10T01:34:10.378Z,66.56
2017-04-10T01:34:50.933Z,66.66
2017-04-10T01:35:31.377Z,66.56
2017-04-10T01:36:11.882Z,66.56
2017-04-10T01:36:52.398Z,67.14
2017-04-10T01:37:32.882Z,67.52
2017-04-10T01:38:13.394Z,67.43
2017-04-10T01:38:53.887Z,67.24
2017-04-10T01:39:34.404Z,67.24
2017-04-10T01:40:14.893Z,67.43
2017-04-10T01:40:55.422Z,67.14
2017-04-10T01:41:35.879Z,67.24
2017-04-10T01:42:16.378Z,67.33
2017-04-10T01:42:56.902Z,67.24
2017-04-10T01:43:37.377Z,67.05
2017-04-10T01:44:17.894Z,67.14
2017-04-10T01:44:58.415Z,67.05
2017-04-10T01:45:38.873Z,67.05
2017-04-10T01:46:19.404Z,67.14
2017-04-10T01:46:59.893Z,67.24
2017-04-10T01:47:40.375Z,67.52
2017-04-10T01:48:20.858Z,67.43
2017-04-10T01:49:01.357Z,67.62
2017-04-10T01:49:41.852Z,67.71
2017-04-10T01:50:22.363Z,67.62
2017-04-10T01:51:02.885Z,67.62
2017-04-10T01:51:43.363Z,67.91
2017-04-10T01:52:23.861Z,67.81
2017-04-10T01:53:04.370Z,67.71
2017-04-10T01:53:44.944Z,67.62
2017-04-10T01:54:25.481Z,67.52
2017-04-10T01:55:05.928Z,67.43
2017-04-10T01:55:46.417Z,67.33
2017-04-10T01:56:26.895Z,67.14
2017-04-10T01:57:07.376Z,67.24
2017-04-10T01:57:47.896Z,66.76
2017-04-10T01:58:28.396Z,66.47
2017-04-10T01:59:08.862Z,66.66
2017-04-10T01:59:49.416Z,66.56
2017-04-10T02:00:29.868Z,67.05
2017-04-10T02:01:10.358Z,67.33
2017-04-10T02:01:50.821Z,67.33
2017-04-10T02:02:31.337Z,67.71
2017-04-10T02:03:11.814Z,67.71
2017-04-10T02:03:52.327Z,67.33
2017-04-10T02:04:32.860Z,67.62
2017-04-10T02:05:13.346Z,67.87
2017-04-10T02:05:53.837Z,68.06
2017-04-10T02:06:34.322Z,67.97
2017-04-10T02:07:14.855Z,67.87
2017-04-10T02:07:55.322Z,68.16
2017-04-10T02:08:35.828Z,67.87
2017-04-10T02:09:16.337Z,67.58
2017-04-10T02:09:56.814Z,67.68
2017-04-10T02:10:37.318Z,67.68
2017-04-10T02:11:17.821Z,67.97
2017-04-10T02:11:58.338Z,67.58
2017-04-10T02:12:38.838Z,67.58
2017-04-10T02:13:19.293Z,67.58
2017-04-10T02:13:59.809Z,67.58
2017-04-10T02:14:40.291Z,67.4
2017-04-10T02:15:20.802Z,67.4
2017-04-10T02:16:01.315Z,67.49
2017-04-10T02:16:41.827Z,67.58
2017-04-10T02:17:22.355Z,68.06
2017-04-10T02:18:02.871Z,68.06
2017-04-10T02:18:43.338Z,67.87
2017-04-10T02:19:23.845Z,68.06
2017-04-10T02:20:04.348Z,67.87
2017-04-10T02:20:44.857Z,68.06
2017-04-10T02:21:25.348Z,67.97
2017-04-10T02:22:05.858Z,67.87
2017-04-10T02:22:46.358Z,67.77
2017-04-10T02:23:26.870Z,67.87
2017-04-10T02:24:07.349Z,67.68
2017-04-10T02:24:47.862Z,67.87
2017-04-10T02:25:28.354Z,68.06
2017-04-10T02:26:08.855Z,67.77
2017-04-10T02:26:49.323Z,68.06
2017-04-10T02:27:29.836Z,68.06
2017-04-10T02:28:10.338Z,68.06
2017-04-10T02:28:50.834Z,67.68
2017-04-10T02:29:31.340Z,68.16
2017-04-10T02:30:11.841Z,68.16
2017-04-10T02:30:52.328Z,68.06
2017-04-10T02:31:32.867Z,68.26
2017-04-10T02:32:13.394Z,67.87
2017-04-10T02:32:53.844Z,67.87
2017-04-10T02:33:34.357Z,68.26
2017-04-10T02:34:14.865Z,67.97
2017-04-10T02:34:55.364Z,67.68
2017-04-10T02:35:35.881Z,67.87
2017-04-10T02:36:16.381Z,67.97
2017-04-10T02:36:56.876Z,68.06
2017-04-10T02:37:37.377Z,67.87
2017-04-10T02:38:17.873Z,67.87
2017-04-10T02:38:58.386Z,67.87
2017-04-10T02:39:38.897Z,67.87
2017-04-10T02:40:19.379Z,67.87
2017-04-10T02:40:59.912Z,67.97
2017-04-10T02:41:40.389Z,67.97
2017-04-10T02:42:20.867Z,67.77
2017-04-10T02:43:01.366Z,68.26
2017-04-10T02:43:41.852Z,67.97
2017-04-10T02:44:22.370Z,67.77
2017-04-10T02:45:02.848Z,67.87
2017-04-10T02:45:43.357Z,67.77
2017-04-10T02:46:23.845Z,67.97
2017-04-10T02:47:04.332Z,67.68
2017-04-10T02:47:44.834Z,68.26
2017-04-10T02:48:25.335Z,68.06
2017-04-10T02:49:05.841Z,67.97
2017-04-10T02:49:46.331Z,67.87
2017-04-10T02:50:26.826Z,68.54
2017-04-10T02:51:07.343Z,68.35
2017-04-10T02:51:47.840Z,68.63
2017-04-10T02:52:28.362Z,68.06
2017-04-10T02:53:08.866Z,67.87
2017-04-10T02:53:49.371Z,67.97
2017-04-10T02:54:29.825Z,68.44
2017-04-10T02:55:10.328Z,68.35
2017-04-10T02:55:50.828Z,68.26
2017-04-10T02:56:31.361Z,67.49
2017-04-10T02:57:11.792Z,67.77
2017-04-10T02:57:52.297Z,67.77
2017-04-10T02:58:32.825Z,68.35
2017-04-10T02:59:13.323Z,67.97
2017-04-10T02:59:53.802Z,68.06
2017-04-10T03:00:34.318Z,68.16
2017-04-10T03:01:14.802Z,68.06
2017-04-10T03:01:55.285Z,68.54
2017-04-10T03:02:35.783Z,68.35
2017-04-10T03:03:16.299Z,68.82
2017-04-10T03:03:56.781Z,69.02
2017-04-10T03:04:37.284Z,68.82
2017-04-10T03:05:17.775Z,68.82
2017-04-10T03:05:58.319Z,68.98
2017-04-10T03:06:38.791Z,69.08
2017-04-10T03:07:19.280Z,69.37
2017-04-10T03:07:59.769Z,69.74
2017-04-10T03:08:40.301Z,70.13
2017-04-10T03:09:20.781Z,69.93
2017-04-10T03:10:01.295Z,70.42
2017-04-10T03:10:41.788Z,70.32
2017-04-10T03:11:22.282Z,70.51
2017-04-10T03:12:02.801Z,70.98
2017-04-10T03:12:43.282Z,70.61
2017-04-10T03:13:23.769Z,70.79
2017-04-10T03:14:04.275Z,70.61
2017-04-10T03:14:44.788Z,70.89
2017-04-10T03:15:25.315Z,70.61
2017-04-10T03:16:05.776Z,70.79
2017-04-10T03:16:46.255Z,70.03
2017-04-10T03:17:26.741Z,70.42
2017-04-10T03:18:07.226Z,69.78
2017-04-10T03:18:47.734Z,69.49
2017-04-10T03:19:28.231Z,69.56
2017-04-10T03:20:08.712Z,69.11
2017-04-10T03:20:49.219Z,69.65
2017-04-10T03:21:29.713Z,68.82
2017-04-10T03:22:10.227Z,69.11
2017-04-10T03:22:50.748Z,69.31
2017-04-10T03:23:31.225Z,68.98
2017-04-10T03:24:11.712Z,68.98
2017-04-10T03:24:52.192Z,68.98
2017-04-10T03:25:32.695Z,69.08
2017-04-10T03:26:13.192Z,69.27
2017-04-10T03:26:53.718Z,68.92
2017-04-10T03:27:34.161Z,68.98
2017-04-10T03:28:14.680Z,68.63
2017-04-10T03:28:55.159Z,68.35
2017-04-10T03:29:35.647Z,68.35
2017-04-10T03:30:16.176Z,68.63
2017-04-10T03:30:56.668Z,67.97
2017-04-10T03:31:37.150Z,67.87
2017-04-10T03:32:17.631Z,67.97
2017-04-10T03:32:58.128Z,67.87
2017-04-10T03:33:38.637Z,67.87
2017-04-10T03:34:19.132Z,68.06
2017-04-10T03:34:59.622Z,68.35
2017-04-10T03:35:40.141Z,68.44
2017-04-10T03:36:20.649Z,68.63
2017-04-10T03:37:01.134Z,68.35
2017-04-10T03:37:41.629Z,68.41
2017-04-10T03:38:22.136Z,68.32
2017-04-10T03:39:02.626Z,68.6
2017-04-10T03:39:43.113Z,68.88
2017-04-10T03:40:23.635Z,69.17
2017-04-10T03:41:04.126Z,69.08
2017-04-10T03:41:44.652Z,68.88
2017-04-10T03:42:25.109Z,69.37
2017-04-10T03:43:05.588Z,69.08
2017-04-10T03:43:46.054Z,68.79
2017-04-10T03:44:26.553Z,68.98
2017-04-10T03:45:07.051Z,68.98
2017-04-10T03:45:47.525Z,68.79
2017-04-10T03:46:28.053Z,69.08
2017-04-10T03:47:08.525Z,68.88
2017-04-10T03:47:49.056Z,69.08
2017-04-10T03:48:29.528Z,68.6
2017-04-10T03:49:10.040Z,68.51
2017-04-10T03:49:50.478Z,68.12
2017-04-10T03:50:31.011Z,68.51
2017-04-10T03:51:11.506Z,68.51
2017-04-10T03:51:51.992Z,68.12
2017-04-10T03:52:32.494Z,68.03
2017-04-10T03:53:13.021Z,67.83
2017-04-10T03:53:53.494Z,68.79
2017-04-10T03:54:33.993Z,68.12
2017-04-10T03:55:14.476Z,68.41
2017-04-10T03:55:54.998Z,67.93
2017-04-10T03:56:35.490Z,68.03
2017-04-10T03:57:15.984Z,67.83
2017-04-10T03:57:56.464Z,68.6
2017-04-10T03:58:36.981Z,68.41
2017-04-10T03:59:17.628Z,68.12
2017-04-10T03:59:58.172Z,68.41
2017-04-10T04:00:38.635Z,68.51
2017-04-10T04:01:19.170Z,69.08
2017-04-10T04:01:59.631Z,68.6
2017-04-10T04:02:40.144Z,68.51
2017-04-10T04:03:20.642Z,68.6
2017-04-10T04:04:01.132Z,68.6
2017-04-10T04:04:41.643Z,69.08
2017-04-10T04:05:22.187Z,68.98
2017-04-10T04:06:02.628Z,69.08
2017-04-10T04:06:43.137Z,69.27
2017-04-10T04:07:23.631Z,68.79
2017-04-10T04:08:04.189Z,68.98
2017-04-10T04:08:44.677Z,68.98
2017-04-10T04:09:25.143Z,68.98
2017-04-10T04:10:05.717Z,69.08
2017-04-10T04:10:46.203Z,69.27
2017-04-10T04:11:26.699Z,69.17
2017-04-10T04:12:07.206Z,69.27
2017-04-10T04:12:47.698Z,68.88
2017-04-10T04:13:28.193Z,69.27
2017-04-10T04:14:08.720Z,69.27
2017-04-10T04:14:49.182Z,69.08
2017-04-10T04:15:29.662Z,69.08
2017-04-10T04:16:10.158Z,68.98
2017-04-10T04:16:50.665Z,68.98
2017-04-10T04:17:31.165Z,68.88
2017-04-10T04:18:11.648Z,68.98
2017-04-10T04:18:52.179Z,68.88
2017-04-10T04:19:32.623Z,69.37
2017-04-10T04:20:13.130Z,68.88
2017-04-10T04:20:53.667Z,68.98
2017-04-10T04:21:34.144Z,68.88
2017-04-10T04:22:14.627Z,68.88
2017-04-10T04:22:55.126Z,69.31
2017-04-10T04:23:35.643Z,68.98
2017-04-10T04:24:16.125Z,68.88
2017-04-10T04:24:56.581Z,69.17
2017-04-10T04:25:37.066Z,68.98
2017-04-10T04:26:17.573Z,69.08
2017-04-10T04:26:58.068Z,69.08
2017-04-10T04:27:38.572Z,69.08
2017-04-10T04:28:19.052Z,69.17
2017-04-10T04:28:59.563Z,69.17
2017-04-10T04:29:40.062Z,69.17
2017-04-10T04:30:20.572Z,68.79
2017-04-10T04:31:01.071Z,69.37
2017-04-10T04:31:41.564Z,69.46
2017-04-10T04:32:22.050Z,69.46
2017-04-10T04:33:02.571Z,69.27
2017-04-10T04:33:43.057Z,69.27
2017-04-10T04:34:23.553Z,69.46
2017-04-10T04:35:04.040Z,69.56
2017-04-10T04:35:44.569Z,69.46
2017-04-10T04:36:25.033Z,69.56
2017-04-10T04:37:05.553Z,69.46
2017-04-10T04:37:46.031Z,69.27
2017-04-10T04:38:26.531Z,69.46
2017-04-10T04:39:07.070Z,69.08
2017-04-10T04:39:47.545Z,69.46
2017-04-10T04:40:28.056Z,69.27
2017-04-10T04:41:08.557Z,70.03
2017-04-10T04:41:49.088Z,69.74
2017-04-10T04:42:29.548Z,69.84
2017-04-10T04:43:10.053Z,69.56
2017-04-10T04:43:50.544Z,69.37
2017-04-10T04:44:31.045Z,69.74
2017-04-10T04:45:11.533Z,69.56
2017-04-10T04:45:52.058Z,69.84
2017-04-10T04:46:32.546Z,70.13
2017-04-10T04:47:13.037Z,69.93
2017-04-10T04:47:53.526Z,69.84
2017-04-10T04:48:34.007Z,69.74
2017-04-10T04:49:14.477Z,69.27
2017-04-10T04:52:35.144Z,70.13
2017-04-10T04:53:15.635Z,70.79
2017-04-10T04:53:56.132Z,70.32
2017-04-10T04:54:36.627Z,70.22
2017-04-10T04:55:17.124Z,70.42
2017-04-10T04:55:57.605Z,70.03
2017-04-10T04:56:38.095Z,70.32
2017-04-10T04:57:18.602Z,70.61
2017-04-10T04:57:59.115Z,70.61
2017-04-10T04:58:39.573Z,70.51
2017-04-10T04:59:20.153Z,70.79
2017-04-10T05:00:00.662Z,70.7
2017-04-10T05:00:41.104Z,70.42
2017-04-10T05:01:21.611Z,70.61
2017-04-10T05:02:02.065Z,70.51
2017-04-10T05:02:42.566Z,70.32
2017-04-10T05:03:23.029Z,70.51
2017-04-10T05:04:03.535Z,70.13
2017-04-10T05:04:44.032Z,70.13
2017-04-10T05:05:24.537Z,70.42
2017-04-10T05:06:05.030Z,70.79
2017-04-10T05:06:45.493Z,70.51
2017-04-10T05:07:26.002Z,70.51
2017-04-10T05:08:06.493Z,70.42
2017-04-10T05:08:46.961Z,70.13
2017-04-10T05:09:27.470Z,70.42
2017-04-10T05:10:07.971Z,70.13
2017-04-10T05:10:48.440Z,70.22
2017-04-10T05:11:28.943Z,70.13
2017-04-10T05:12:09.446Z,70.13
2017-04-10T05:12:49.951Z,70.51
2017-04-10T05:13:30.452Z,70.13
2017-04-10T05:14:10.936Z,70.51
2017-04-10T05:14:51.432Z,70.42
2017-04-10T05:15:31.926Z,70.13
2017-04-10T05:16:12.419Z,70.42
2017-04-10T05:16:52.904Z,70.51
2017-04-10T05:17:33.428Z,70.61
2017-04-10T05:18:13.881Z,70.42
2017-04-10T05:18:54.415Z,70.51
2017-04-10T05:19:34.917Z,70.79
2017-04-10T05:20:15.402Z,70.13
2017-04-10T05:20:55.957Z,69.93
2017-04-10T05:21:36.442Z,69.74
2017-04-10T05:22:16.897Z,70.07
2017-04-10T05:22:57.399Z,69.87
2017-04-10T05:23:37.917Z,69.68
2017-04-10T05:24:18.412Z,69.87
2017-04-10T05:24:58.922Z,70.26
2017-04-10T05:25:39.428Z,70.64
2017-04-10T05:26:19.927Z,75.22
2017-04-10T05:27:00.439Z,76.37
2017-04-10T05:27:40.957Z,74.74
2017-04-10T05:28:21.437Z,73.98
2017-04-10T05:29:01.935Z,75.6
2017-04-10T05:29:42.419Z,78.89
2017-04-10T05:30:22.961Z,80.99
2017-04-10T05:31:03.488Z,81.85
2017-04-10T05:31:43.935Z,82.52
2017-04-10T05:32:24.433Z,81.27
2017-04-10T05:33:05.093Z,76.98
2017-04-10T05:33:45.573Z,76.54
2017-04-10T05:34:26.069Z,79.02
2017-04-10T05:35:06.685Z,81.32
2017-04-10T05:35:47.105Z,78.45
2017-04-10T05:36:27.614Z,78.07
2017-04-10T05:37:08.097Z,80.55
2017-04-10T05:37:48.570Z,79.69
2017-04-10T05:38:29.067Z,81.51
2017-04-10T05:39:09.536Z,79.98
2017-04-10T05:39:50.043Z,79.12
2017-04-10T05:40:30.514Z,77.69
2017-04-10T05:41:11.024Z,78.83
2017-04-10T05:41:51.493Z,80.36
2017-04-10T05:42:31.967Z,81.79
2017-04-10T05:43:12.612Z,80.07
2017-04-10T05:43:53.053Z,76.35
2017-04-10T05:44:33.588Z,77.78
2017-04-10T05:45:14.106Z,78.07
2017-04-10T05:45:54.575Z,78.55
2017-04-10T05:46:35.089Z,76.92
2017-04-10T05:47:15.526Z,76.54
2017-04-10T05:47:56.024Z,75.1
2017-04-10T05:48:36.579Z,74.63
2017-04-10T05:49:17.019Z,75.59
2017-04-10T05:49:57.533Z,74.73
2017-04-10T05:50:38.055Z,75.96
2017-04-10T05:51:18.519Z,76.06
2017-04-10T05:51:59.038Z,74.82
2017-04-10T05:52:39.563Z,73.29
2017-04-10T05:53:20.051Z,72.33
2017-04-10T05:54:00.573Z,72.81
2017-04-10T05:54:41.052Z,72.81
2017-04-10T05:55:21.564Z,71.47
2017-04-10T05:56:02.099Z,71.47
2017-04-10T05:58:20.434Z,74.24
2017-04-10T05:59:00.956Z,74.15
2017-04-10T05:59:41.484Z,73.39
2017-04-10T06:00:21.985Z,72.81
2017-04-10T06:02:15.106Z,75.59
2017-04-10T06:02:55.602Z,74.05
2017-04-10T06:03:36.146Z,70.9
2017-04-10T06:04:16.629Z,71.57
2017-04-10T06:04:57.131Z,71.19
2017-04-10T06:05:37.673Z,71.09
2017-04-10T06:06:18.171Z,73.1
2017-04-10T06:06:58.676Z,77.69
2017-04-10T06:07:39.099Z,75.81
2017-04-10T06:08:19.678Z,70.61
2017-04-10T06:09:00.169Z,77.01
2017-04-10T06:09:40.663Z,74.53
2017-04-10T06:10:21.211Z,72.05
2017-04-10T06:11:01.681Z,71.86
2017-04-10T06:11:42.400Z,73.43
2017-04-10T06:12:22.928Z,72.08
2017-04-10T06:13:03.398Z,70.75
2017-04-10T06:13:43.873Z,73.71
2017-04-10T06:14:24.388Z,73.61
2017-04-10T06:15:04.902Z,72.18
2017-04-10T06:15:45.407Z,76
2017-04-10T06:16:25.909Z,76.1
2017-04-10T06:17:06.413Z,74.85
2017-04-10T06:17:46.935Z,74.38
2017-04-10T06:18:27.412Z,74.7
2017-04-10T06:19:07.923Z,79.87
2017-04-10T06:19:48.645Z,77.28
2017-04-10T06:20:29.200Z,79.68
2017-04-10T06:21:09.712Z,80.06
2017-04-10T06:21:50.162Z,82.17
2017-04-10T06:22:30.771Z,80.06
2017-04-10T06:23:11.778Z,83.12
2017-04-10T06:23:52.813Z,84.31
2017-04-10T06:24:33.227Z,84.12
2017-04-10T06:25:13.808Z,82.68
2017-04-10T06:27:28.760Z,78.66
2017-04-10T06:28:08.623Z,77.9
2017-04-10T06:28:49.188Z,82.2
2017-04-10T06:29:29.629Z,84.02
2017-04-10T06:30:10.215Z,83.59
2017-04-10T06:30:50.680Z,82.3
2017-04-10T06:31:31.216Z,84.35
2017-04-10T06:32:11.668Z,74.16
2017-04-10T06:32:52.159Z,77.23
2017-04-10T06:33:32.656Z,74.74
2017-04-10T06:34:13.161Z,74.45
2017-04-10T06:34:53.696Z,71.2
2017-04-10T06:35:34.184Z,71.87
2017-04-10T06:36:14.717Z,69.44
2017-04-10T06:36:55.194Z,68.2
2017-04-10T06:37:35.707Z,72.88
2017-04-10T06:38:16.166Z,68.87
2017-04-10T06:38:56.648Z,68.1
2017-04-10T06:39:37.142Z,70.87
2017-04-10T06:40:17.680Z,74.04
2017-04-10T06:40:58.132Z,70.78
2017-04-10T06:41:38.631Z,73.17
2017-04-10T06:42:19.132Z,75.37
2017-04-10T06:42:59.670Z,70.87
2017-04-10T06:43:40.154Z,70.97
2017-04-10T06:44:20.644Z,71.07
2017-04-10T06:45:01.160Z,74.04
2017-04-10T06:45:41.635Z,72.6
2017-04-10T06:46:22.105Z,70.4
2017-04-10T06:47:02.621Z,77.33
2017-04-10T06:47:43.143Z,75.95
2017-04-10T06:48:23.638Z,73.94
2017-04-10T06:49:04.151Z,72.22
2017-04-10T06:49:44.642Z,74.99
2017-04-10T06:50:25.169Z,72.79
2017-04-10T06:51:05.669Z,69.25
2017-04-10T06:51:46.177Z,71.36
2017-04-10T06:52:26.664Z,69.35
2017-04-10T06:53:07.201Z,74.04
2017-04-10T06:53:47.722Z,73.08
2017-04-10T06:54:28.190Z,75.22
2017-04-10T06:55:08.648Z,74.26
2017-04-10T06:55:49.146Z,71.48
2017-04-10T06:56:29.636Z,70.34
2017-04-10T06:57:10.184Z,74.36
2017-04-10T06:57:50.670Z,75.41
2017-04-10T06:58:31.153Z,70.72
2017-04-10T06:59:11.644Z,71.11
2017-04-10T06:59:52.114Z,73.69
2017-04-10T07:00:32.590Z,78.7
2017-04-10T07:01:13.080Z,80.9
2017-04-10T07:01:53.642Z,79.57
2017-04-10T07:02:34.109Z,76.35
2017-04-10T07:03:14.615Z,75.16
2017-04-10T07:03:55.112Z,80.37
2017-04-10T07:04:35.597Z,81.04
2017-04-10T07:05:16.125Z,72.99
2017-04-10T07:05:56.592Z,71.75
2017-04-10T07:06:37.105Z,77.06
2017-04-10T07:07:17.592Z,76.57
2017-04-10T07:07:58.174Z,79.83
2017-04-10T07:08:38.624Z,81.08
2017-04-10T07:09:19.144Z,80.79
2017-04-10T07:09:59.622Z,80.83
2017-04-10T07:10:40.114Z,80.16
2017-04-10T07:11:20.637Z,74.6
2017-04-10T07:12:01.109Z,70.38
2017-04-10T07:12:41.613Z,76.04
2017-04-10T07:13:22.220Z,75.37
2017-04-10T07:14:02.771Z,74.6
2017-04-10T07:14:43.339Z,80.01
2017-04-10T07:15:23.802Z,79.44
2017-04-10T07:16:04.323Z,78.38
2017-04-10T07:16:44.819Z,80.11
2017-04-10T07:17:25.327Z,77.13
2017-04-10T07:18:05.842Z,79.53
2017-04-10T07:18:46.341Z,80.49
2017-04-10T07:19:27.334Z,78.9
2017-04-10T07:20:07.798Z,81.01
2017-04-10T07:20:48.287Z,82.16
2017-04-10T07:21:28.807Z,83.12
2017-04-10T07:22:09.298Z,75.06
2017-04-10T07:22:49.838Z,72.95
2017-04-10T07:23:30.310Z,77.17
2017-04-10T07:24:10.807Z,73.14
2017-04-10T07:24:51.288Z,69.4
2017-04-10T07:25:31.798Z,75.73
2017-04-10T07:26:12.350Z,79.67
2017-04-10T07:26:52.890Z,78.61
2017-04-10T07:27:33.424Z,78.23
2017-04-10T07:28:14.104Z,78.7
2017-04-10T07:28:54.584Z,75.15
2017-04-10T07:29:35.044Z,77.5
2017-04-10T07:30:15.520Z,78.32
2017-04-10T07:30:56.005Z,78.61
2017-04-10T07:31:36.619Z,77.36
2017-04-10T07:32:17.092Z,77.26
2017-04-10T07:32:57.600Z,76.98
2017-04-10T07:33:38.083Z,74.39
2017-04-10T07:34:18.600Z,71.7
2017-04-10T07:34:59.070Z,67.86
2017-04-10T07:35:39.609Z,65.75
2017-04-10T07:36:20.094Z,68.24
2017-04-10T07:37:00.592Z,69.68
2017-04-10T07:37:41.092Z,68.34
2017-04-10T07:38:21.603Z,69.4
2017-04-10T07:39:02.189Z,71.7
2017-04-10T07:39:42.605Z,68.82
2017-04-10T07:40:23.101Z,67
2017-04-10T07:41:03.570Z,67.86
2017-04-10T07:41:44.110Z,70.55
2017-04-10T07:42:24.641Z,73.72
2017-04-10T07:43:05.133Z,70.84
2017-04-10T07:43:45.698Z,67.86
2017-04-10T07:44:26.289Z,67.29
2017-04-10T07:45:06.741Z,69.97
2017-04-10T07:45:47.212Z,68.82
2017-04-10T07:46:27.727Z,67
2017-04-10T07:47:08.275Z,67.29
2017-04-10T07:49:21.679Z,65.36
2017-04-10T07:50:02.131Z,71.55
2017-04-10T07:50:42.648Z,71.73
2017-04-10T07:51:23.226Z,72.99
2017-04-10T07:52:03.693Z,74.43
2017-04-10T07:52:44.183Z,73.75
2017-04-10T07:53:24.748Z,71.35
2017-04-10T07:54:05.197Z,74.33
2017-04-10T07:54:45.684Z,71.06
2017-04-10T07:55:26.240Z,72.6
2017-04-10T07:56:06.857Z,76.19
2017-04-10T07:56:47.354Z,73.31
2017-04-10T07:57:27.831Z,66.55
2017-04-10T07:58:08.413Z,68.89
2017-04-10T07:58:48.821Z,70.33
2017-04-10T07:59:29.324Z,71.19
2017-04-10T08:00:09.779Z,72.64
2017-04-10T08:00:50.256Z,76.29
2017-04-10T08:01:30.800Z,78.21
2017-04-10T08:02:11.325Z,78.88
2017-04-10T08:02:51.833Z,68.79
2017-04-10T08:03:32.330Z,75.13
2017-04-10T08:04:12.890Z,73.88
2017-04-10T08:04:53.399Z,70.43
2017-04-10T08:05:33.877Z,68.41
2017-04-10T08:06:14.358Z,73.41
2017-04-10T08:06:54.857Z,74.08
2017-04-10T08:07:35.335Z,75.13
2017-04-10T08:08:15.858Z,76.19
2017-04-10T08:08:56.443Z,76.39
2017-04-10T08:09:36.881Z,68.12
2017-04-10T08:10:17.423Z,76.29
2017-04-10T08:10:57.964Z,70.33
2017-04-10T08:11:38.395Z,60.72
2017-04-10T08:12:18.952Z,66.58
2017-04-10T08:12:59.463Z,63.51
2017-04-10T08:13:39.938Z,63.79
2017-04-10T08:14:20.412Z,66.58
2017-04-10T08:15:00.950Z,73.44
2017-04-10T08:15:41.478Z,73.6
2017-04-10T08:16:21.956Z,70.14
2017-04-10T08:17:02.561Z,71.77
2017-04-10T08:17:43.003Z,70.46
2017-04-10T08:18:23.525Z,65.05
2017-04-10T08:19:04.043Z,69.18
2017-04-10T08:19:44.492Z,73.35
2017-04-10T08:20:24.959Z,73.21
2017-04-10T08:21:05.442Z,69.6
2017-04-10T08:21:45.977Z,69.75
2017-04-10T08:22:26.452Z,71.48
2017-04-10T08:23:06.992Z,74.27
2017-04-10T08:23:47.455Z,72.92
2017-04-10T08:24:27.947Z,73.41
2017-04-10T08:25:08.495Z,72.73
2017-04-10T08:25:48.970Z,71.19
2017-04-10T08:26:29.442Z,70.23
2017-04-10T08:27:10.198Z,71.29
2017-04-10T08:27:50.513Z,72.54
2017-04-10T08:28:31.037Z,68.02
2017-04-10T08:29:11.521Z,68.31
2017-04-10T08:29:52.169Z,70.17
2017-04-10T08:30:32.708Z,71.23
2017-04-10T08:31:13.180Z,67.77
2017-04-10T08:31:53.729Z,69.02
2017-04-10T08:32:34.464Z,65.08
2017-04-10T08:33:14.760Z,65.46
2017-04-10T08:33:55.245Z,66.81
2017-04-10T08:34:35.777Z,68.35
2017-04-10T08:35:16.326Z,69.66
2017-04-10T08:35:56.752Z,63.32
2017-04-10T08:36:37.295Z,64.85
2017-04-10T08:37:17.788Z,68.98
2017-04-10T08:37:58.310Z,70.72
2017-04-10T08:38:38.767Z,71.04
2017-04-10T08:39:19.304Z,66.61
2017-04-10T08:39:59.758Z,71.42
2017-04-10T08:40:40.302Z,73.35
2017-04-10T08:41:20.768Z,74.21
2017-04-10T08:42:01.281Z,73.83
2017-04-10T08:42:41.706Z,73.57
2017-04-10T08:43:22.220Z,71.84
2017-04-10T08:44:02.754Z,74.54
2017-04-10T08:44:43.290Z,74.63
2017-04-10T08:45:23.847Z,69.63
2017-04-10T08:46:04.310Z,73.96
2017-04-10T08:46:44.841Z,74.44
2017-04-10T08:47:25.390Z,73.96
2017-04-10T08:48:05.792Z,71.36
2017-04-10T08:48:46.360Z,66.74
2017-04-10T08:49:26.907Z,63.18
2017-04-10T08:50:07.411Z,66.46
2017-04-10T08:50:47.985Z,68.86
2017-04-10T08:51:28.426Z,63.09